sensor_id;sensor_type;location;lat;lon;timestamp;P1;durP1;ratioP1;P2;durP2;ratioP2
7575;SDS011;3829;50.798;4.358;2024-01-30T00:00:04;6.00;;;4.40;;
7575;SDS011;3829;50.798;4.358;2024-01-30T00:02:30;6.33;;;4.33;;
7575;SDS011;3829;50.798;4.358;2024-01-30T00:04:57;7.30;;;4.03;;
7575;SDS011;3829;50.798;4.358;2024-01-30T00:07:22;7.23;;;4.33;;
7575;SDS011;3829;50.798;4.358;2024-01-30T00:09:48;7.50;;;4.20;;
7575;SDS011;3829;50.798;4.358;2024-01-30T00:12:13;5.10;;;3.43;;
7575;SDS011;3829;50.798;4.358;2024-01-30T00:14:41;7.40;;;4.50;;
7575;SDS011;3829;50.798;4.358;2024-01-30T00:17:08;6.53;;;4.10;;
7575;SDS011;3829;50.798;4.358;2024-01-30T00:19:33;6.57;;;4.67;;
7575;SDS011;3829;50.798;4.358;2024-01-30T00:21:59;8.47;;;4.10;;
7575;SDS011;3829;50.798;4.358;2024-01-30T00:24:24;5.50;;;3.90;;
7575;SDS011;3829;50.798;4.358;2024-01-30T00:26:50;7.23;;;3.50;;
7575;SDS011;3829;50.798;4.358;2024-01-30T00:29:16;6.47;;;4.00;;
7575;SDS011;3829;50.798;4.358;2024-01-30T00:31:44;9.27;;;4.63;;
7575;SDS011;3829;50.798;4.358;2024-01-30T00:34:10;7.30;;;4.30;;
7575;SDS011;3829;50.798;4.358;2024-01-30T00:36:36;6.47;;;4.57;;
7575;SDS011;3829;50.798;4.358;2024-01-30T00:39:02;6.13;;;4.10;;
7575;SDS011;3829;50.798;4.358;2024-01-30T00:41:31;7.03;;;4.27;;
7575;SDS011;3829;50.798;4.358;2024-01-30T00:43:57;5.83;;;4.00;;
7575;SDS011;3829;50.798;4.358;2024-01-30T00:46:22;7.63;;;3.83;;
7575;SDS011;3829;50.798;4.358;2024-01-30T00:48:48;5.87;;;3.93;;
7575;SDS011;3829;50.798;4.358;2024-01-30T00:51:13;8.93;;;3.93;;
7575;SDS011;3829;50.798;4.358;2024-01-30T00:53:39;5.50;;;3.97;;
7575;SDS011;3829;50.798;4.358;2024-01-30T00:56:06;7.33;;;3.73;;
7575;SDS011;3829;50.798;4.358;2024-01-30T00:58:32;5.53;;;4.17;;
7575;SDS011;3829;50.798;4.358;2024-01-30T01:00:58;7.87;;;4.17;;
7575;SDS011;3829;50.798;4.358;2024-01-30T01:03:24;5.83;;;3.90;;
7575;SDS011;3829;50.798;4.358;2024-01-30T01:05:50;6.30;;;4.00;;
7575;SDS011;3829;50.798;4.358;2024-01-30T01:08:15;6.17;;;3.73;;
7575;SDS011;3829;50.798;4.358;2024-01-30T01:10:41;6.67;;;4.07;;
7575;SDS011;3829;50.798;4.358;2024-01-30T01:13:07;8.10;;;4.77;;
7575;SDS011;3829;50.798;4.358;2024-01-30T01:15:32;6.80;;;3.77;;
7575;SDS011;3829;50.798;4.358;2024-01-30T01:17:58;6.03;;;4.10;;
7575;SDS011;3829;50.798;4.358;2024-01-30T01:20:23;5.67;;;3.70;;
7575;SDS011;3829;50.798;4.358;2024-01-30T01:22:49;4.67;;;3.40;;
7575;SDS011;3829;50.798;4.358;2024-01-30T01:25:14;6.80;;;3.70;;
7575;SDS011;3829;50.798;4.358;2024-01-30T01:27:40;5.60;;;3.33;;
7575;SDS011;3829;50.798;4.358;2024-01-30T01:30:08;6.67;;;3.60;;
7575;SDS011;3829;50.798;4.358;2024-01-30T01:32:35;5.60;;;4.00;;
7575;SDS011;3829;50.798;4.358;2024-01-30T01:35:01;5.33;;;3.67;;
7575;SDS011;3829;50.798;4.358;2024-01-30T01:37:27;6.63;;;4.40;;
7575;SDS011;3829;50.798;4.358;2024-01-30T01:39:53;6.23;;;3.60;;
7575;SDS011;3829;50.798;4.358;2024-01-30T01:42:18;4.97;;;3.50;;
7575;SDS011;3829;50.798;4.358;2024-01-30T01:44:44;6.27;;;3.60;;
7575;SDS011;3829;50.798;4.358;2024-01-30T01:47:09;6.20;;;3.53;;
7575;SDS011;3829;50.798;4.358;2024-01-30T01:49:36;4.70;;;3.63;;
7575;SDS011;3829;50.798;4.358;2024-01-30T01:52:02;7.27;;;3.83;;
7575;SDS011;3829;50.798;4.358;2024-01-30T01:54:28;6.07;;;3.87;;
7575;SDS011;3829;50.798;4.358;2024-01-30T01:56:54;11.80;;;3.50;;
7575;SDS011;3829;50.798;4.358;2024-01-30T01:59:20;5.20;;;3.93;;
7575;SDS011;3829;50.798;4.358;2024-01-30T02:01:47;7.63;;;3.63;;
7575;SDS011;3829;50.798;4.358;2024-01-30T02:04:14;5.77;;;3.43;;
7575;SDS011;3829;50.798;4.358;2024-01-30T02:06:40;7.30;;;3.97;;
7575;SDS011;3829;50.798;4.358;2024-01-30T02:09:07;5.70;;;3.30;;
7575;SDS011;3829;50.798;4.358;2024-01-30T02:11:34;6.73;;;3.73;;
7575;SDS011;3829;50.798;4.358;2024-01-30T02:14:03;4.87;;;3.60;;
7575;SDS011;3829;50.798;4.358;2024-01-30T02:16:29;6.77;;;3.83;;
7575;SDS011;3829;50.798;4.358;2024-01-30T02:18:55;5.67;;;3.13;;
7575;SDS011;3829;50.798;4.358;2024-01-30T02:21:20;4.50;;;3.20;;
7575;SDS011;3829;50.798;4.358;2024-01-30T02:23:46;4.53;;;3.73;;
7575;SDS011;3829;50.798;4.358;2024-01-30T02:26:12;6.13;;;3.73;;
7575;SDS011;3829;50.798;4.358;2024-01-30T02:28:38;6.13;;;4.07;;
7575;SDS011;3829;50.798;4.358;2024-01-30T02:31:04;6.30;;;3.70;;
7575;SDS011;3829;50.798;4.358;2024-01-30T02:33:30;5.47;;;3.80;;
7575;SDS011;3829;50.798;4.358;2024-01-30T02:35:55;5.10;;;3.70;;
7575;SDS011;3829;50.798;4.358;2024-01-30T02:38:21;8.23;;;4.33;;
7575;SDS011;3829;50.798;4.358;2024-01-30T02:40:48;5.37;;;3.77;;
7575;SDS011;3829;50.798;4.358;2024-01-30T02:43:14;8.17;;;3.50;;
7575;SDS011;3829;50.798;4.358;2024-01-30T02:45:41;9.40;;;4.00;;
7575;SDS011;3829;50.798;4.358;2024-01-30T02:48:06;5.63;;;3.40;;
7575;SDS011;3829;50.798;4.358;2024-01-30T02:50:32;7.20;;;3.50;;
7575;SDS011;3829;50.798;4.358;2024-01-30T02:52:57;8.47;;;4.27;;
7575;SDS011;3829;50.798;4.358;2024-01-30T02:55:23;7.60;;;3.87;;
7575;SDS011;3829;50.798;4.358;2024-01-30T02:57:48;5.83;;;3.67;;
7575;SDS011;3829;50.798;4.358;2024-01-30T03:00:15;7.93;;;3.73;;
7575;SDS011;3829;50.798;4.358;2024-01-30T03:02:41;5.90;;;3.73;;
7575;SDS011;3829;50.798;4.358;2024-01-30T03:05:07;5.67;;;3.77;;
7575;SDS011;3829;50.798;4.358;2024-01-30T03:07:33;6.43;;;3.80;;
7575;SDS011;3829;50.798;4.358;2024-01-30T03:09:59;9.47;;;4.13;;
7575;SDS011;3829;50.798;4.358;2024-01-30T03:12:24;7.20;;;3.80;;
7575;SDS011;3829;50.798;4.358;2024-01-30T03:14:50;5.17;;;3.33;;
7575;SDS011;3829;50.798;4.358;2024-01-30T03:17:15;5.37;;;3.53;;
7575;SDS011;3829;50.798;4.358;2024-01-30T03:19:41;5.50;;;3.40;;
7575;SDS011;3829;50.798;4.358;2024-01-30T03:22:07;5.93;;;3.37;;
7575;SDS011;3829;50.798;4.358;2024-01-30T03:24:32;4.47;;;3.37;;
7575;SDS011;3829;50.798;4.358;2024-01-30T03:26:58;8.80;;;3.50;;
7575;SDS011;3829;50.798;4.358;2024-01-30T03:29:23;5.10;;;3.70;;
7575;SDS011;3829;50.798;4.358;2024-01-30T03:31:49;5.40;;;3.40;;
7575;SDS011;3829;50.798;4.358;2024-01-30T03:34:15;7.63;;;3.80;;
7575;SDS011;3829;50.798;4.358;2024-01-30T03:36:40;7.33;;;3.63;;
7575;SDS011;3829;50.798;4.358;2024-01-30T03:39:06;6.80;;;3.77;;
7575;SDS011;3829;50.798;4.358;2024-01-30T03:41:31;5.43;;;3.60;;
7575;SDS011;3829;50.798;4.358;2024-01-30T03:43:57;5.50;;;3.27;;
7575;SDS011;3829;50.798;4.358;2024-01-30T03:46:23;6.27;;;4.60;;
7575;SDS011;3829;50.798;4.358;2024-01-30T03:48:49;5.80;;;3.67;;
7575;SDS011;3829;50.798;4.358;2024-01-30T03:51:14;6.37;;;3.90;;
7575;SDS011;3829;50.798;4.358;2024-01-30T03:53:42;8.90;;;3.90;;
7575;SDS011;3829;50.798;4.358;2024-01-30T03:56:08;5.97;;;3.60;;
7575;SDS011;3829;50.798;4.358;2024-01-30T03:58:34;9.07;;;4.17;;
7575;SDS011;3829;50.798;4.358;2024-01-30T04:01:00;6.10;;;3.47;;
7575;SDS011;3829;50.798;4.358;2024-01-30T04:03:26;7.07;;;3.80;;
7575;SDS011;3829;50.798;4.358;2024-01-30T04:05:51;9.33;;;3.70;;
7575;SDS011;3829;50.798;4.358;2024-01-30T04:08:18;8.40;;;3.40;;
7575;SDS011;3829;50.798;4.358;2024-01-30T04:10:43;7.93;;;3.50;;
7575;SDS011;3829;50.798;4.358;2024-01-30T04:13:09;5.30;;;3.47;;
7575;SDS011;3829;50.798;4.358;2024-01-30T04:15:35;6.03;;;3.50;;
7575;SDS011;3829;50.798;4.358;2024-01-30T04:18:00;7.70;;;3.70;;
7575;SDS011;3829;50.798;4.358;2024-01-30T04:20:26;6.73;;;3.73;;
7575;SDS011;3829;50.798;4.358;2024-01-30T04:22:51;5.77;;;3.50;;
7575;SDS011;3829;50.798;4.358;2024-01-30T04:25:17;7.63;;;3.57;;
7575;SDS011;3829;50.798;4.358;2024-01-30T04:27:43;7.23;;;3.97;;
7575;SDS011;3829;50.798;4.358;2024-01-30T04:30:08;7.50;;;3.77;;
7575;SDS011;3829;50.798;4.358;2024-01-30T04:32:35;5.03;;;3.97;;
7575;SDS011;3829;50.798;4.358;2024-01-30T04:35:01;7.83;;;4.53;;
7575;SDS011;3829;50.798;4.358;2024-01-30T04:37:26;7.33;;;3.77;;
7575;SDS011;3829;50.798;4.358;2024-01-30T04:39:52;7.80;;;4.60;;
7575;SDS011;3829;50.798;4.358;2024-01-30T04:42:18;4.83;;;3.50;;
7575;SDS011;3829;50.798;4.358;2024-01-30T04:44:43;5.83;;;3.97;;
7575;SDS011;3829;50.798;4.358;2024-01-30T04:47:09;7.03;;;4.13;;
7575;SDS011;3829;50.798;4.358;2024-01-30T04:49:36;7.27;;;4.27;;
7575;SDS011;3829;50.798;4.358;2024-01-30T04:52:06;5.20;;;4.00;;
7575;SDS011;3829;50.798;4.358;2024-01-30T04:54:32;6.53;;;3.97;;
7575;SDS011;3829;50.798;4.358;2024-01-30T04:56:58;7.80;;;4.03;;
7575;SDS011;3829;50.798;4.358;2024-01-30T04:59:24;7.13;;;3.80;;
7575;SDS011;3829;50.798;4.358;2024-01-30T05:01:49;6.67;;;4.07;;
7575;SDS011;3829;50.798;4.358;2024-01-30T05:04:15;6.27;;;4.20;;
7575;SDS011;3829;50.798;4.358;2024-01-30T05:06:40;5.93;;;3.83;;
7575;SDS011;3829;50.798;4.358;2024-01-30T05:09:06;8.03;;;3.97;;
7575;SDS011;3829;50.798;4.358;2024-01-30T05:11:36;10.20;;;4.20;;
7575;SDS011;3829;50.798;4.358;2024-01-30T05:14:03;7.73;;;3.80;;
7575;SDS011;3829;50.798;4.358;2024-01-30T05:16:28;6.47;;;4.20;;
7575;SDS011;3829;50.798;4.358;2024-01-30T05:18:54;6.57;;;4.43;;
7575;SDS011;3829;50.798;4.358;2024-01-30T05:21:19;8.23;;;4.23;;
7575;SDS011;3829;50.798;4.358;2024-01-30T05:23:45;8.00;;;4.50;;
7575;SDS011;3829;50.798;4.358;2024-01-30T05:26:10;7.03;;;4.07;;
7575;SDS011;3829;50.798;4.358;2024-01-30T05:28:36;5.80;;;3.50;;
7575;SDS011;3829;50.798;4.358;2024-01-30T05:31:01;5.60;;;3.77;;
7575;SDS011;3829;50.798;4.358;2024-01-30T05:33:27;5.13;;;4.13;;
7575;SDS011;3829;50.798;4.358;2024-01-30T05:35:53;5.80;;;4.40;;
7575;SDS011;3829;50.798;4.358;2024-01-30T05:38:19;5.93;;;4.90;;
7575;SDS011;3829;50.798;4.358;2024-01-30T05:40:45;8.70;;;4.53;;
7575;SDS011;3829;50.798;4.358;2024-01-30T05:43:10;5.57;;;4.20;;
7575;SDS011;3829;50.798;4.358;2024-01-30T05:45:36;8.77;;;4.30;;
7575;SDS011;3829;50.798;4.358;2024-01-30T05:48:02;7.53;;;4.10;;
7575;SDS011;3829;50.798;4.358;2024-01-30T05:50:28;5.40;;;4.03;;
7575;SDS011;3829;50.798;4.358;2024-01-30T05:52:54;6.23;;;4.03;;
7575;SDS011;3829;50.798;4.358;2024-01-30T05:55:19;7.53;;;3.97;;
7575;SDS011;3829;50.798;4.358;2024-01-30T05:57:45;10.00;;;4.13;;
7575;SDS011;3829;50.798;4.358;2024-01-30T06:00:10;7.63;;;4.43;;
7575;SDS011;3829;50.798;4.358;2024-01-30T06:02:36;5.67;;;4.23;;
7575;SDS011;3829;50.798;4.358;2024-01-30T06:05:02;6.87;;;4.13;;
7575;SDS011;3829;50.798;4.358;2024-01-30T06:07:28;8.33;;;4.40;;
7575;SDS011;3829;50.798;4.358;2024-01-30T06:09:53;8.17;;;4.80;;
7575;SDS011;3829;50.798;4.358;2024-01-30T06:12:19;6.10;;;4.50;;
7575;SDS011;3829;50.798;4.358;2024-01-30T06:14:45;7.77;;;4.13;;
7575;SDS011;3829;50.798;4.358;2024-01-30T06:17:10;7.80;;;4.47;;
7575;SDS011;3829;50.798;4.358;2024-01-30T06:19:37;8.30;;;4.60;;
7575;SDS011;3829;50.798;4.358;2024-01-30T06:22:04;8.40;;;4.47;;
7575;SDS011;3829;50.798;4.358;2024-01-30T06:24:30;5.77;;;4.47;;
7575;SDS011;3829;50.798;4.358;2024-01-30T06:26:56;8.33;;;4.80;;
7575;SDS011;3829;50.798;4.358;2024-01-30T06:29:21;7.27;;;4.37;;
7575;SDS011;3829;50.798;4.358;2024-01-30T06:31:49;7.77;;;4.57;;
7575;SDS011;3829;50.798;4.358;2024-01-30T06:34:15;8.77;;;4.70;;
7575;SDS011;3829;50.798;4.358;2024-01-30T06:36:40;6.67;;;4.40;;
7575;SDS011;3829;50.798;4.358;2024-01-30T06:39:06;7.67;;;4.97;;
7575;SDS011;3829;50.798;4.358;2024-01-30T06:41:32;8.13;;;4.80;;
7575;SDS011;3829;50.798;4.358;2024-01-30T06:43:58;7.50;;;4.47;;
7575;SDS011;3829;50.798;4.358;2024-01-30T06:46:23;8.03;;;4.57;;
7575;SDS011;3829;50.798;4.358;2024-01-30T06:48:49;9.27;;;5.17;;
7575;SDS011;3829;50.798;4.358;2024-01-30T06:51:14;8.87;;;4.90;;
7575;SDS011;3829;50.798;4.358;2024-01-30T06:53:40;6.13;;;4.10;;
7575;SDS011;3829;50.798;4.358;2024-01-30T06:56:05;8.47;;;4.37;;
7575;SDS011;3829;50.798;4.358;2024-01-30T06:58:31;7.43;;;4.60;;
7575;SDS011;3829;50.798;4.358;2024-01-30T07:00:57;7.30;;;5.10;;
7575;SDS011;3829;50.798;4.358;2024-01-30T07:03:23;6.67;;;4.97;;
7575;SDS011;3829;50.798;4.358;2024-01-30T07:05:49;6.73;;;4.93;;
7575;SDS011;3829;50.798;4.358;2024-01-30T07:08:15;8.33;;;4.73;;
7575;SDS011;3829;50.798;4.358;2024-01-30T07:10:42;6.30;;;4.30;;
7575;SDS011;3829;50.798;4.358;2024-01-30T07:13:10;8.10;;;4.40;;
7575;SDS011;3829;50.798;4.358;2024-01-30T07:15:36;7.70;;;4.47;;
7575;SDS011;3829;50.798;4.358;2024-01-30T07:18:03;9.97;;;4.67;;
7575;SDS011;3829;50.798;4.358;2024-01-30T07:20:29;12.03;;;5.37;;
7575;SDS011;3829;50.798;4.358;2024-01-30T07:22:56;14.30;;;4.80;;
7575;SDS011;3829;50.798;4.358;2024-01-30T07:25:23;7.03;;;4.43;;
7575;SDS011;3829;50.798;4.358;2024-01-30T07:27:53;11.07;;;5.33;;
7575;SDS011;3829;50.798;4.358;2024-01-30T07:30:19;8.77;;;4.80;;
7575;SDS011;3829;50.798;4.358;2024-01-30T07:32:45;9.27;;;4.77;;
7575;SDS011;3829;50.798;4.358;2024-01-30T07:35:11;11.27;;;4.67;;
7575;SDS011;3829;50.798;4.358;2024-01-30T07:37:37;8.77;;;5.63;;
7575;SDS011;3829;50.798;4.358;2024-01-30T07:40:03;8.07;;;5.03;;
7575;SDS011;3829;50.798;4.358;2024-01-30T07:42:29;8.57;;;4.50;;
7575;SDS011;3829;50.798;4.358;2024-01-30T07:44:54;10.77;;;4.97;;
7575;SDS011;3829;50.798;4.358;2024-01-30T07:47:20;11.27;;;5.20;;
7575;SDS011;3829;50.798;4.358;2024-01-30T07:49:46;10.87;;;5.83;;
7575;SDS011;3829;50.798;4.358;2024-01-30T07:52:11;10.63;;;5.07;;
7575;SDS011;3829;50.798;4.358;2024-01-30T07:57:12;12.30;;;5.50;;
7575;SDS011;3829;50.798;4.358;2024-01-30T07:59:38;5.60;;;4.53;;
7575;SDS011;3829;50.798;4.358;2024-01-30T08:02:04;10.10;;;4.80;;
7575;SDS011;3829;50.798;4.358;2024-01-30T08:04:29;9.83;;;5.23;;
7575;SDS011;3829;50.798;4.358;2024-01-30T08:06:55;11.27;;;5.40;;
7575;SDS011;3829;50.798;4.358;2024-01-30T08:09:20;11.73;;;5.40;;
7575;SDS011;3829;50.798;4.358;2024-01-30T08:11:46;18.20;;;5.77;;
7575;SDS011;3829;50.798;4.358;2024-01-30T08:14:11;11.17;;;5.47;;
7575;SDS011;3829;50.798;4.358;2024-01-30T08:16:38;12.47;;;5.73;;
7575;SDS011;3829;50.798;4.358;2024-01-30T08:19:04;9.90;;;5.90;;
7575;SDS011;3829;50.798;4.358;2024-01-30T08:21:30;12.70;;;6.23;;
7575;SDS011;3829;50.798;4.358;2024-01-30T08:24:01;11.87;;;5.30;;
7575;SDS011;3829;50.798;4.358;2024-01-30T08:26:28;9.63;;;5.10;;
7575;SDS011;3829;50.798;4.358;2024-01-30T08:28:54;12.63;;;5.63;;
7575;SDS011;3829;50.798;4.358;2024-01-30T08:31:19;11.00;;;6.17;;
7575;SDS011;3829;50.798;4.358;2024-01-30T08:33:45;15.13;;;6.80;;
7575;SDS011;3829;50.798;4.358;2024-01-30T08:36:11;12.47;;;6.53;;
7575;SDS011;3829;50.798;4.358;2024-01-30T08:38:36;10.47;;;5.90;;
7575;SDS011;3829;50.798;4.358;2024-01-30T08:41:02;9.00;;;5.73;;
7575;SDS011;3829;50.798;4.358;2024-01-30T08:43:28;10.43;;;5.90;;
7575;SDS011;3829;50.798;4.358;2024-01-30T08:45:53;12.57;;;6.30;;
7575;SDS011;3829;50.798;4.358;2024-01-30T08:48:19;11.67;;;5.93;;
7575;SDS011;3829;50.798;4.358;2024-01-30T08:50:44;11.67;;;5.93;;
7575;SDS011;3829;50.798;4.358;2024-01-30T08:53:10;14.27;;;6.40;;
7575;SDS011;3829;50.798;4.358;2024-01-30T08:55:35;8.73;;;5.20;;
7575;SDS011;3829;50.798;4.358;2024-01-30T08:58:01;8.97;;;5.53;;
7575;SDS011;3829;50.798;4.358;2024-01-30T09:00:28;8.80;;;5.20;;
7575;SDS011;3829;50.798;4.358;2024-01-30T09:02:54;14.83;;;5.43;;
7575;SDS011;3829;50.798;4.358;2024-01-30T09:05:19;8.97;;;5.47;;
7575;SDS011;3829;50.798;4.358;2024-01-30T09:07:45;7.13;;;5.53;;
7575;SDS011;3829;50.798;4.358;2024-01-30T09:10:11;13.57;;;5.50;;
7575;SDS011;3829;50.798;4.358;2024-01-30T09:12:36;10.90;;;5.90;;
7575;SDS011;3829;50.798;4.358;2024-01-30T09:15:03;10.13;;;5.27;;
7575;SDS011;3829;50.798;4.358;2024-01-30T09:17:28;9.93;;;5.90;;
7575;SDS011;3829;50.798;4.358;2024-01-30T09:19:54;9.77;;;5.27;;
7575;SDS011;3829;50.798;4.358;2024-01-30T09:22:20;8.27;;;5.47;;
7575;SDS011;3829;50.798;4.358;2024-01-30T09:24:46;13.27;;;6.27;;
7575;SDS011;3829;50.798;4.358;2024-01-30T09:27:11;10.60;;;5.60;;
7575;SDS011;3829;50.798;4.358;2024-01-30T09:29:37;11.87;;;5.93;;
7575;SDS011;3829;50.798;4.358;2024-01-30T09:32:03;12.00;;;6.37;;
7575;SDS011;3829;50.798;4.358;2024-01-30T09:34:29;12.43;;;6.07;;
7575;SDS011;3829;50.798;4.358;2024-01-30T09:36:55;11.83;;;6.90;;
7575;SDS011;3829;50.798;4.358;2024-01-30T09:39:20;11.63;;;6.43;;
7575;SDS011;3829;50.798;4.358;2024-01-30T09:41:49;11.60;;;6.70;;
7575;SDS011;3829;50.798;4.358;2024-01-30T09:44:22;11.83;;;6.70;;
7575;SDS011;3829;50.798;4.358;2024-01-30T09:46:50;12.97;;;6.70;;
7575;SDS011;3829;50.798;4.358;2024-01-30T09:49:16;14.73;;;7.10;;
7575;SDS011;3829;50.798;4.358;2024-01-30T09:51:43;15.43;;;6.97;;
7575;SDS011;3829;50.798;4.358;2024-01-30T09:54:10;15.60;;;8.20;;
7575;SDS011;3829;50.798;4.358;2024-01-30T09:56:38;10.50;;;6.40;;
7575;SDS011;3829;50.798;4.358;2024-01-30T09:59:04;15.47;;;7.60;;
7575;SDS011;3829;50.798;4.358;2024-01-30T10:01:29;14.50;;;7.03;;
7575;SDS011;3829;50.798;4.358;2024-01-30T10:03:56;12.07;;;7.23;;
7575;SDS011;3829;50.798;4.358;2024-01-30T10:06:22;16.27;;;7.03;;
7575;SDS011;3829;50.798;4.358;2024-01-30T10:08:50;15.60;;;7.93;;
7575;SDS011;3829;50.798;4.358;2024-01-30T10:11:15;15.13;;;7.80;;
7575;SDS011;3829;50.798;4.358;2024-01-30T10:13:41;9.93;;;6.30;;
7575;SDS011;3829;50.798;4.358;2024-01-30T10:16:06;14.60;;;7.17;;
7575;SDS011;3829;50.798;4.358;2024-01-30T10:18:32;16.60;;;7.83;;
7575;SDS011;3829;50.798;4.358;2024-01-30T10:20:58;16.70;;;7.20;;
7575;SDS011;3829;50.798;4.358;2024-01-30T10:23:24;12.83;;;7.23;;
7575;SDS011;3829;50.798;4.358;2024-01-30T10:25:51;13.90;;;7.53;;
7575;SDS011;3829;50.798;4.358;2024-01-30T10:28:17;14.93;;;6.77;;
7575;SDS011;3829;50.798;4.358;2024-01-30T10:30:43;13.70;;;7.80;;
7575;SDS011;3829;50.798;4.358;2024-01-30T10:33:08;13.40;;;7.53;;
7575;SDS011;3829;50.798;4.358;2024-01-30T10:35:34;12.67;;;7.40;;
7575;SDS011;3829;50.798;4.358;2024-01-30T10:38:00;20.70;;;7.60;;
7575;SDS011;3829;50.798;4.358;2024-01-30T10:40:27;13.80;;;6.47;;
7575;SDS011;3829;50.798;4.358;2024-01-30T10:42:53;16.03;;;6.63;;
7575;SDS011;3829;50.798;4.358;2024-01-30T10:45:20;12.37;;;6.27;;
7575;SDS011;3829;50.798;4.358;2024-01-30T10:47:49;7.23;;;5.13;;
7575;SDS011;3829;50.798;4.358;2024-01-30T10:50:15;11.17;;;5.90;;
7575;SDS011;3829;50.798;4.358;2024-01-30T10:52:41;12.13;;;6.40;;
7575;SDS011;3829;50.798;4.358;2024-01-30T10:55:08;13.57;;;6.07;;
7575;SDS011;3829;50.798;4.358;2024-01-30T10:57:34;8.50;;;5.20;;
7575;SDS011;3829;50.798;4.358;2024-01-30T11:00:02;11.27;;;5.80;;
7575;SDS011;3829;50.798;4.358;2024-01-30T11:02:35;11.90;;;5.83;;
7575;SDS011;3829;50.798;4.358;2024-01-30T11:05:04;10.37;;;5.53;;
7575;SDS011;3829;50.798;4.358;2024-01-30T11:07:30;8.30;;;4.80;;
7575;SDS011;3829;50.798;4.358;2024-01-30T11:10:00;9.23;;;5.10;;
7575;SDS011;3829;50.798;4.358;2024-01-30T11:12:28;10.10;;;4.97;;
7575;SDS011;3829;50.798;4.358;2024-01-30T11:17:41;9.53;;;3.70;;
7575;SDS011;3829;50.798;4.358;2024-01-30T11:20:10;8.00;;;3.33;;
7575;SDS011;3829;50.798;4.358;2024-01-30T11:22:36;10.03;;;3.50;;
7575;SDS011;3829;50.798;4.358;2024-01-30T11:25:02;3.23;;;2.70;;
7575;SDS011;3829;50.798;4.358;2024-01-30T11:27:28;7.03;;;2.43;;
7575;SDS011;3829;50.798;4.358;2024-01-30T11:30:01;6.93;;;2.50;;
7575;SDS011;3829;50.798;4.358;2024-01-30T11:32:27;7.47;;;2.33;;
7575;SDS011;3829;50.798;4.358;2024-01-30T11:34:54;4.17;;;2.40;;
7575;SDS011;3829;50.798;4.358;2024-01-30T11:37:20;5.73;;;2.27;;
7575;SDS011;3829;50.798;4.358;2024-01-30T11:39:49;7.77;;;2.30;;
7575;SDS011;3829;50.798;4.358;2024-01-30T11:42:16;5.80;;;2.30;;
7575;SDS011;3829;50.798;4.358;2024-01-30T11:44:46;3.53;;;1.70;;
7575;SDS011;3829;50.798;4.358;2024-01-30T11:47:12;1.70;;;1.37;;
7575;SDS011;3829;50.798;4.358;2024-01-30T11:49:39;1.57;;;1.40;;
7575;SDS011;3829;50.798;4.358;2024-01-30T11:52:05;5.40;;;1.00;;
7575;SDS011;3829;50.798;4.358;2024-01-30T11:54:30;4.00;;;1.10;;
7575;SDS011;3829;50.798;4.358;2024-01-30T11:56:56;6.00;;;1.30;;
7575;SDS011;3829;50.798;4.358;2024-01-30T11:59:22;1.97;;;1.30;;
7575;SDS011;3829;50.798;4.358;2024-01-30T12:01:47;3.97;;;1.40;;
7575;SDS011;3829;50.798;4.358;2024-01-30T12:04:13;1.40;;;1.30;;
7575;SDS011;3829;50.798;4.358;2024-01-30T12:06:38;1.97;;;1.10;;
7575;SDS011;3829;50.798;4.358;2024-01-30T12:09:05;2.93;;;1.43;;
7575;SDS011;3829;50.798;4.358;2024-01-30T12:11:43;3.30;;;1.17;;
7575;SDS011;3829;50.798;4.358;2024-01-30T12:14:10;1.53;;;1.20;;
7575;SDS011;3829;50.798;4.358;2024-01-30T12:16:37;2.40;;;1.17;;
7575;SDS011;3829;50.798;4.358;2024-01-30T12:19:02;3.07;;;1.30;;
7575;SDS011;3829;50.798;4.358;2024-01-30T12:21:28;5.93;;;1.50;;
7575;SDS011;3829;50.798;4.358;2024-01-30T12:23:54;3.77;;;1.30;;
7575;SDS011;3829;50.798;4.358;2024-01-30T12:26:21;3.53;;;1.10;;
7575;SDS011;3829;50.798;4.358;2024-01-30T12:28:48;3.23;;;1.30;;
7575;SDS011;3829;50.798;4.358;2024-01-30T12:31:15;2.20;;;1.20;;
7575;SDS011;3829;50.798;4.358;2024-01-30T12:33:40;2.30;;;1.20;;
7575;SDS011;3829;50.798;4.358;2024-01-30T12:36:06;1.80;;;1.00;;
7575;SDS011;3829;50.798;4.358;2024-01-30T12:38:32;5.03;;;1.00;;
7575;SDS011;3829;50.798;4.358;2024-01-30T12:40:58;5.07;;;1.20;;
7575;SDS011;3829;50.798;4.358;2024-01-30T12:43:23;2.73;;;0.90;;
7575;SDS011;3829;50.798;4.358;2024-01-30T12:45:50;4.80;;;1.53;;
7575;SDS011;3829;50.798;4.358;2024-01-30T12:48:17;2.33;;;1.37;;
7575;SDS011;3829;50.798;4.358;2024-01-30T12:50:42;1.40;;;1.10;;
7575;SDS011;3829;50.798;4.358;2024-01-30T12:53:08;2.60;;;1.10;;
7575;SDS011;3829;50.798;4.358;2024-01-30T12:55:34;2.00;;;1.10;;
7575;SDS011;3829;50.798;4.358;2024-01-30T12:58:00;3.73;;;1.07;;
7575;SDS011;3829;50.798;4.358;2024-01-30T13:00:26;2.87;;;1.10;;
7575;SDS011;3829;50.798;4.358;2024-01-30T13:02:51;4.63;;;1.53;;
7575;SDS011;3829;50.798;4.358;2024-01-30T13:05:17;1.10;;;1.00;;
7575;SDS011;3829;50.798;4.358;2024-01-30T13:07:43;5.40;;;1.50;;
7575;SDS011;3829;50.798;4.358;2024-01-30T13:10:08;3.13;;;1.30;;
7575;SDS011;3829;50.798;4.358;2024-01-30T13:12:34;3.27;;;1.63;;
7575;SDS011;3829;50.798;4.358;2024-01-30T13:15:00;1.67;;;1.30;;
7575;SDS011;3829;50.798;4.358;2024-01-30T13:17:27;2.07;;;1.37;;
7575;SDS011;3829;50.798;4.358;2024-01-30T13:19:53;1.50;;;1.40;;
7575;SDS011;3829;50.798;4.358;2024-01-30T13:22:19;2.37;;;1.50;;
7575;SDS011;3829;50.798;4.358;2024-01-30T13:24:46;10.07;;;1.80;;
7575;SDS011;3829;50.798;4.358;2024-01-30T13:27:12;3.37;;;1.50;;
7575;SDS011;3829;50.798;4.358;2024-01-30T13:29:38;1.43;;;1.10;;
7575;SDS011;3829;50.798;4.358;2024-01-30T13:32:04;2.93;;;1.73;;
7575;SDS011;3829;50.798;4.358;2024-01-30T13:34:29;8.07;;;1.47;;
7575;SDS011;3829;50.798;4.358;2024-01-30T13:36:55;5.13;;;1.70;;
7575;SDS011;3829;50.798;4.358;2024-01-30T13:39:21;3.07;;;1.67;;
7575;SDS011;3829;50.798;4.358;2024-01-30T13:41:46;2.23;;;1.60;;
7575;SDS011;3829;50.798;4.358;2024-01-30T13:44:13;5.10;;;1.57;;
7575;SDS011;3829;50.798;4.358;2024-01-30T13:46:41;9.17;;;1.50;;
7575;SDS011;3829;50.798;4.358;2024-01-30T13:49:06;5.33;;;1.57;;
7575;SDS011;3829;50.798;4.358;2024-01-30T13:51:32;3.63;;;1.50;;
7575;SDS011;3829;50.798;4.358;2024-01-30T13:53:57;2.00;;;1.20;;
7575;SDS011;3829;50.798;4.358;2024-01-30T13:56:23;6.17;;;1.67;;
7575;SDS011;3829;50.798;4.358;2024-01-30T13:58:49;2.93;;;1.70;;
7575;SDS011;3829;50.798;4.358;2024-01-30T14:01:15;2.70;;;1.40;;
7575;SDS011;3829;50.798;4.358;2024-01-30T14:03:41;6.00;;;2.17;;
7575;SDS011;3829;50.798;4.358;2024-01-30T14:06:07;2.03;;;1.53;;
7575;SDS011;3829;50.798;4.358;2024-01-30T14:08:35;1.97;;;1.20;;
7575;SDS011;3829;50.798;4.358;2024-01-30T14:11:00;7.37;;;1.23;;
7575;SDS011;3829;50.798;4.358;2024-01-30T14:13:26;2.93;;;1.30;;
7575;SDS011;3829;50.798;4.358;2024-01-30T14:15:51;5.37;;;1.20;;
7575;SDS011;3829;50.798;4.358;2024-01-30T14:18:17;5.60;;;1.80;;
7575;SDS011;3829;50.798;4.358;2024-01-30T14:20:43;3.90;;;1.90;;
7575;SDS011;3829;50.798;4.358;2024-01-30T14:23:09;1.47;;;1.17;;
7575;SDS011;3829;50.798;4.358;2024-01-30T14:25:34;4.57;;;1.57;;
7575;SDS011;3829;50.798;4.358;2024-01-30T14:28:00;5.50;;;1.60;;
7575;SDS011;3829;50.798;4.358;2024-01-30T14:30:25;2.57;;;2.10;;
7575;SDS011;3829;50.798;4.358;2024-01-30T14:32:51;1.30;;;1.03;;
7575;SDS011;3829;50.798;4.358;2024-01-30T14:35:16;1.80;;;1.20;;
7575;SDS011;3829;50.798;4.358;2024-01-30T14:37:42;3.17;;;1.00;;
7575;SDS011;3829;50.798;4.358;2024-01-30T14:40:08;2.93;;;1.80;;
7575;SDS011;3829;50.798;4.358;2024-01-30T14:42:33;5.50;;;1.57;;
7575;SDS011;3829;50.798;4.358;2024-01-30T14:45:01;5.23;;;1.70;;
7575;SDS011;3829;50.798;4.358;2024-01-30T14:47:26;2.97;;;1.50;;
7575;SDS011;3829;50.798;4.358;2024-01-30T14:49:52;5.57;;;1.43;;
7575;SDS011;3829;50.798;4.358;2024-01-30T14:52:18;1.50;;;1.27;;
7575;SDS011;3829;50.798;4.358;2024-01-30T14:54:43;2.20;;;1.30;;
7575;SDS011;3829;50.798;4.358;2024-01-30T14:57:09;4.90;;;1.10;;
7575;SDS011;3829;50.798;4.358;2024-01-30T14:59:35;4.53;;;1.20;;
7575;SDS011;3829;50.798;4.358;2024-01-30T15:02:01;3.37;;;1.53;;
7575;SDS011;3829;50.798;4.358;2024-01-30T15:04:27;2.13;;;1.20;;
7575;SDS011;3829;50.798;4.358;2024-01-30T15:06:53;3.57;;;1.43;;
7575;SDS011;3829;50.798;4.358;2024-01-30T15:09:19;2.60;;;1.43;;